Report Vehicle Measure = Sum of the Total Weight (TotW) Sum of the Time Weight (TiW)
Inspection Date Number State Plate Number Plate State Type Severity Weight
(SW)
Time Weight
(TiW)
Total Weight
(TotW)
9/26/2018 CAA168482875 CA XP33958 CA Truck Tractor 4 3 12
393.45(b)(2) Brake hose or tubing chafing and/or kinking 4  
9/25/2018 CAA170753126 CA WP82608 CA Truck Tractor 9 3 27
393.207(b) Adjustable axle locking pins missing or not engaged (OOS) 7 + 2 (OOS)  
9/25/2018 CAA088674973 CA WP76884 CA Truck Tractor 0 3 0
9/21/2018 CA1791801003 CA WP69520 CA Truck Tractor 8 3 24
393.47(e) Clamp or Roto type brake out-of-adjustment 4  
393.53(b) CMV manufactured after 10/19/94 has an automatic airbrake adjustment system that fails to compensate for wear 4  
Sum of Violation Weight => Inspection Severity Weight (SW) 8  
9/20/2018 CAA160631260 CA 9E98513 CA Truck Tractor 0 3 0
9/19/2018 CAA139622511 CA 9E98522 CA Truck Tractor 6 3 18
396.3A1B Brakes (general) Explain: (OOS) 4 + 2 (OOS)  
9/19/2018 CA1429800531 CA 9E98522 CA Truck Tractor 0 3 0
9/19/2018 CAA171272290 CA WP76955 CA Truck Tractor 0 3 0
9/18/2018 CA2033100092 CA 9F38876 CA Truck Tractor 4 3 12
393.45(b)(2) Brake hose or tubing chafing and/or kinking 4  
9/18/2018 CAA139622509 CA 9F38876 CA Truck Tractor 0 3 0
9/18/2018 CA1780701612 CA 17174W1 CA Straight Truck 4 3 12
396.5B-HWSLIW Hubs - Wheel seal leaking - inner wheel 2  
396.3(a)(1) Inspection, repair and maintenance of parts & accessories 2  
Sum of Violation Weight => Inspection Severity Weight (SW) 4  
9/18/2018 CA1866602982 CA WP82457 CA Truck Tractor 5 3 15
393.11 No or defective lighting devices or reflective material as required (OOS) 3 + 2 (OOS)  
9/14/2018 CAA120003590 CA XP19066 CA Truck Tractor 0 3 0
9/12/2018 CAA166213867 CA WP02274 CA Truck Tractor 0 3 0
9/12/2018 CAA170753064 CA 9F72883 CA Truck Tractor 0 3 0
9/11/2018 CAA170112814 CA WP57090 CA Truck Tractor 5 3 15
393.95(a) No/discharged/unsecured fire extinguisher 2  
393.11 No or defective lighting devices or reflective material as required 3  
Sum of Violation Weight => Inspection Severity Weight (SW) 5  
9/11/2018 CAA092781534 CA 9F12041 CA Truck Tractor 0 3 0
9/10/2018 CAA158163879 CA 9F38809 CA Truck Tractor 2 3 6
393.9 Inoperable Required Lamp 2  
9/8/2018 CAA171811976 CA 9F12057 CA Truck Tractor 4 3 12
393.47(e) Clamp or Roto type brake out-of-adjustment 4  
9/7/2018 CA1665003500 CA 4PG4548 CA Intermodal Chassis 0 3 0
9/7/2018 CA1665003501 CA 4PG4546 CA Intermodal Chassis 2 3 6
396.3(a)(1) Inspection, repair and maintenance of parts & accessories 2  
9/7/2018 CA1665003502 CA 4PG4547 CA Intermodal Chassis 0 3 0
9/7/2018 CA1665003503 CA 4NV6123 CA Intermodal Chassis 0 3 0
9/7/2018 CA1665003504 CA 4PG4543 CA Intermodal Chassis 0 3 0
9/7/2018 CA1665003505 CA 4NV6122 CA Intermodal Chassis 0 3 0
9/7/2018 CA1665003506 CA U627752 TN Intermodal Chassis 0 3 0
9/7/2018 CA1665003507 CA 4PB2883 CA Intermodal Chassis 0 3 0
9/7/2018 CA1665003508 CA 4NV6116 CA Intermodal Chassis 0 3 0
9/7/2018 CA1665003509 CA 4NV6117 CA Intermodal Chassis 0 3 0
9/7/2018 CA1665003510 CA 4NV6118 CA Intermodal Chassis 0 3 0
9/7/2018 CA1665003511 CA 4PB2879 CA Intermodal Chassis 0 3 0
9/7/2018 CAA166894376 CA WP76956 CA Truck Tractor 0 3 0
9/6/2018 CA1501600984 CA 9F12061 CA Truck Tractor 2 3 6
393.9 Inoperable Required Lamp 2  
9/5/2018 CAA170753008 CA WP82623 CA Truck Tractor 0 3 0
8/31/2018 CA1824102439 CA 48002Z1 CA Straight Truck 0 3 0
8/31/2018 CA1725902202 CA 9F11705 CA Truck Tractor 4 3 12
396.3A1B Brakes (general) Explain: 4  
8/31/2018 CA1725902203 CA 4NV6124 CA Intermodal Chassis 0 3 0
8/31/2018 CA1725902204 CA 4PB2884 CA Intermodal Chassis 0 3 0
8/31/2018 CA1725902205 CA 4PP8062 CA Intermodal Chassis 2 3 6
393.201(d) Frame accessories improperly attached 2  
8/31/2018 CA1725902206 CA 4NY9293 CA Intermodal Chassis 0 3 0
8/31/2018 CA1725902207 CA 4NV6129 CA Intermodal Chassis 0 3 0
8/31/2018 CA1725902208 CA 4NV6140 CA Intermodal Chassis 8 3 24
393.75(a)(4) Tire-cut exposing ply and/or belt material 8  
8/31/2018 CA1725902209 CA 4NV6136 CA Intermodal Chassis 0 3 0
8/31/2018 CA1725902210 CA 4NV6138 CA Intermodal Chassis 10 3 30
393.75(a)(3) Tire-flat and/or audible air leak (OOS) 8 + 2 (OOS)  
8/31/2018 CA1725902211 CA 4PP8064 CA Intermodal Chassis 2 3 6
393.201(d) Frame accessories improperly attached 2  
8/31/2018 CA1725902212 CA U708801 TN Intermodal Chassis 0 3 0
8/31/2018 CA1725902213 CA 4NV6132 CA Intermodal Chassis 0 3 0
8/31/2018 CA1725902214 CA 4HY9292 CA Intermodal Chassis 0 3 0
8/31/2018 CA1725902215 CA 4NV6114 CA Intermodal Chassis 0 3 0
8/31/2018 CAA166894345 CA 9F12035 CA Truck Tractor 0 3 0
Sum of measure weights Sum of measure weights 0 0 0